Time;durP1;ratioP1;P1;durP2;ratioP2;P2;SDS_P1;SDS_P2;PMS_P1;PMS_P2;Temp;Humidity;BMP_temperature;BMP_pressure;BME280_temperature;BME280_humidity;BME280_pressure;Samples;Min_cycle;Max_cycle;Signal;HPM_P1;HPM_P2
2023/12/09 00:00:48;;;;;;;865.88;788.13;;;7.10;99.90;;;;;;6300768;22;20483;-82
2023/12/09 00:03:14;;;;;;;890.03;807.92;;;7.00;99.90;;;;;;6300157;22;20091;-82
2023/12/09 00:05:39;;;;;;;874.30;793.78;;;7.10;99.90;;;;;;6273918;22;20084;-82
2023/12/09 00:08:05;;;;;;;849.40;772.15;;;7.10;99.90;;;;;;6274569;22;20019;-82
2023/12/09 00:10:31;;;;;;;889.05;807.65;;;7.20;99.90;;;;;;6273659;22;20541;-82
2023/12/09 00:12:57;;;;;;;883.47;802.88;;;7.10;99.90;;;;;;6300678;22;20098;-82
2023/12/09 00:15:22;;;;;;;868.95;789.95;;;7.10;99.90;;;;;;6301690;22;20023;-82
2023/12/09 00:17:48;;;;;;;860.33;783.90;;;7.10;99.90;;;;;;6301467;22;20491;-82
2023/12/09 00:20:14;;;;;;;877.30;796.97;;;7.10;99.90;;;;;;6300813;22;20072;-82
2023/12/09 00:22:41;;;;;;;871.65;793.42;;;7.10;99.90;;;;;;6300616;22;20023;-82
2023/12/09 00:25:07;;;;;;;877.50;797.33;;;7.20;99.90;;;;;;6299682;22;20015;-83
2023/12/09 00:27:34;;;;;;;941.67;852.10;;;7.10;99.90;;;;;;6273549;22;20459;-82
2023/12/09 00:30:00;;;;;;;858.75;779.70;;;7.20;99.90;;;;;;6300191;22;20068;-82
2023/12/09 00:32:25;;;;;;;875.55;797.15;;;7.20;99.90;;;;;;6299312;22;20011;-82
2023/12/09 00:34:51;;;;;;;891.67;811.17;;;7.20;99.90;;;;;;6274708;22;20065;-82
2023/12/09 00:37:17;;;;;;;919.10;833.75;;;7.10;99.90;;;;;;6300656;22;20015;-82
2023/12/09 00:39:42;;;;;;;885.97;806.40;;;7.10;99.90;;;;;;6298909;22;20451;-82
2023/12/09 00:42:10;;;;;;;872.03;792.45;;;7.20;99.90;;;;;;6300317;22;20011;-82
2023/12/09 00:44:35;;;;;;;843.63;768.08;;;7.20;99.90;;;;;;6298782;22;20480;-82
2023/12/09 00:47:01;;;;;;;900.20;817.80;;;7.20;99.90;;;;;;6299514;22;20019;-82
2023/12/09 00:49:27;;;;;;;862.30;786.78;;;7.20;99.90;;;;;;6274220;22;20478;-82
2023/12/09 00:51:53;;;;;;;855.70;779.80;;;7.20;99.90;;;;;;6299915;22;20058;-82
2023/12/09 00:54:18;;;;;;;873.83;795.80;;;7.10;99.90;;;;;;6273657;22;20026;-82
2023/12/09 00:56:44;;;;;;;850.33;774.63;;;7.20;99.90;;;;;;6299627;22;20019;-82
2023/12/09 00:59:10;;;;;;;882.70;803.80;;;7.20;99.90;;;;;;6299144;22;20107;-82
2023/12/09 01:01:35;;;;;;;852.28;777.58;;;7.10;99.90;;;;;;6301252;22;20112;-83
2023/12/09 01:04:03;;;;;;;870.65;793.85;;;7.10;99.90;;;;;;6299618;22;20051;-82
2023/12/09 01:06:29;;;;;;;862.53;785.70;;;7.20;99.90;;;;;;6274348;22;20007;-82
2023/12/09 01:08:55;;;;;;;860.35;785.72;;;7.20;99.90;;;;;;6298785;22;20027;-82
2023/12/09 01:11:21;;;;;;;868.03;791.28;;;7.20;99.90;;;;;;6300298;22;20062;-82
2023/12/09 01:13:46;;;;;;;861.45;785.17;;;7.30;99.90;;;;;;6298060;22;20340;-82
2023/12/09 01:16:12;;;;;;;898.97;814.42;;;7.30;99.90;;;;;;6273947;22;20094;-82
2023/12/09 01:18:38;;;;;;;844.95;771.78;;;7.30;99.90;;;;;;6299922;22;20023;-82
2023/12/09 01:21:04;;;;;;;843.63;769.45;;;7.20;99.90;;;;;;6298694;22;20026;-82
2023/12/09 01:23:29;;;;;;;894.92;815.10;;;7.30;99.90;;;;;;6300116;22;20019;-82
2023/12/09 01:25:56;;;;;;;870.50;793.92;;;7.20;99.90;;;;;;6300775;22;20023;-82
2023/12/09 01:28:22;;;;;;;888.92;811.17;;;7.30;99.90;;;;;;6297674;22;20435;-83
2023/12/09 01:30:48;;;;;;;893.10;813.08;;;7.30;99.90;;;;;;6300059;22;20019;-82
2023/12/09 01:33:13;;;;;;;872.13;795.17;;;7.30;99.90;;;;;;6299260;22;20019;-82
2023/12/09 01:35:39;;;;;;;864.47;788.10;;;7.30;99.90;;;;;;6298800;22;20084;-82
2023/12/09 01:38:05;;;;;;;839.28;766.15;;;7.30;99.90;;;;;;6301829;22;20340;-82
2023/12/09 01:40:30;;;;;;;836.33;763.80;;;7.30;99.90;;;;;;6298873;22;20019;-82
2023/12/09 01:42:56;;;;;;;882.83;803.67;;;7.30;99.90;;;;;;6298752;22;20115;-82
2023/12/09 01:45:22;;;;;;;821.05;749.97;;;7.30;99.90;;;;;;6298867;22;20011;-82
2023/12/09 01:47:48;;;;;;;844.00;771.25;;;7.20;99.90;;;;;;6301415;22;20378;-82
2023/12/09 01:50:15;;;;;;;862.17;787.50;;;7.30;99.90;;;;;;6298771;22;20016;-82
2023/12/09 01:52:42;;;;;;;833.85;762.42;;;7.40;99.90;;;;;;6273506;22;20366;-82
2023/12/09 01:55:10;;;;;;;890.67;809.60;;;7.40;99.90;;;;;;6299826;22;20452;-82
2023/12/09 01:57:36;;;;;;;839.65;767.58;;;7.30;99.90;;;;;;6297137;22;20015;-82
2023/12/09 02:00:03;;;;;;;868.92;793.10;;;7.40;99.90;;;;;;6299638;22;20033;-82
2023/12/09 02:02:30;;;;;;;883.58;805.75;;;7.30;99.90;;;;;;6273271;22;20424;-82
2023/12/09 02:04:56;;;;;;;874.00;797.58;;;7.40;99.90;;;;;;6273067;22;20019;-82
2023/12/09 02:07:22;;;;;;;868.47;793.90;;;7.40;99.90;;;;;;6299565;22;20018;-82
2023/12/09 02:09:48;;;;;;;861.22;787.47;;;7.30;99.90;;;;;;6298668;22;20023;-82
2023/12/09 02:12:17;;;;;;;843.38;771.03;;;7.40;99.90;;;;;;6301114;22;20023;-82
2023/12/09 02:14:59;;;;;;;838.35;765.92;;;7.40;99.90;;;;;;6297256;22;20019;-82
2023/12/09 02:17:33;;;;;;;817.72;750.13;;;7.40;99.90;;;;;;6298146;22;20023;-82
2023/12/09 02:20:00;;;;;;;873.15;796.65;;;7.30;99.90;;;;;;6300011;22;20080;-82
2023/12/09 02:22:26;;;;;;;832.40;762.65;;;7.40;99.90;;;;;;6273019;22;20086;-82
2023/12/09 02:24:51;;;;;;;854.58;781.63;;;7.40;99.90;;;;;;6298696;22;20112;-82
2023/12/09 02:27:29;;;;;;;827.38;757.22;;;7.30;99.90;;;;;;6299376;22;20331;-82
2023/12/09 02:30:12;;;;;;;810.78;743.60;;;7.30;99.90;;;;;;6300522;22;20021;-82
2023/12/09 02:32:38;;;;;;;;;;;7.40;99.90;;;;;;6298227;22;20102;-82
2023/12/09 02:35:06;;;;;;;821.03;753.03;;;7.30;99.90;;;;;;6299263;22;19950;-82
2023/12/09 02:37:35;;;;;;;843.40;772.58;;;7.40;99.90;;;;;;6299047;22;20016;-82
2023/12/09 02:40:02;;;;;;;847.45;776.33;;;7.30;99.90;;;;;;6300685;22;20133;-82
2023/12/09 02:42:28;;;;;;;824.42;754.90;;;7.30;99.90;;;;;;6273180;22;20019;-83
2023/12/09 02:44:55;;;;;;;848.90;777.33;;;7.30;99.90;;;;;;6272460;22;20072;-82
2023/12/09 02:47:20;;;;;;;851.08;778.83;;;7.40;99.90;;;;;;6272968;22;20058;-83
2023/12/09 02:49:46;;;;;;;848.25;776.22;;;7.40;99.90;;;;;;6298486;22;20027;-82
2023/12/09 02:52:14;;;;;;;851.03;778.88;;;7.40;99.90;;;;;;6298594;22;20007;-82
2023/12/09 02:54:40;;;;;;;806.72;739.72;;;7.40;99.90;;;;;;6298745;22;20066;-82
2023/12/09 02:57:05;;;;;;;838.30;768.13;;;7.40;99.90;;;;;;6298947;22;20472;-82
2023/12/09 02:59:31;;;;;;;856.63;783.88;;;7.40;99.90;;;;;;6271842;22;20777;-83
2023/12/09 03:01:57;;;;;;;888.58;812.72;;;7.40;99.90;;;;;;6299191;22;20015;-82
2023/12/09 03:04:23;;;;;;;837.53;767.20;;;7.50;99.90;;;;;;6299655;22;20023;-82
2023/12/09 03:06:49;;;;;;;811.20;744.10;;;7.50;99.90;;;;;;6297963;22;20015;-83
2023/12/09 03:09:14;;;;;;;839.40;770.03;;;7.40;99.90;;;;;;6273476;22;20019;-82
2023/12/09 03:11:40;;;;;;;840.80;771.08;;;7.40;99.90;;;;;;6301290;22;20346;-83
2023/12/09 03:14:06;;;;;;;812.67;745.17;;;7.40;99.90;;;;;;6271630;22;20577;-82
2023/12/09 03:16:31;;;;;;;879.97;804.35;;;7.40;99.90;;;;;;6274005;22;20015;-82
2023/12/09 03:18:57;;;;;;;824.92;756.67;;;7.40;99.90;;;;;;6299764;22;20047;-82
2023/12/09 03:21:22;;;;;;;852.60;779.22;;;7.40;99.90;;;;;;6298652;22;20419;-83
2023/12/09 03:23:48;;;;;;;814.38;747.95;;;7.50;99.90;;;;;;6299318;22;20054;-82
2023/12/09 03:26:16;;;;;;;827.47;759.22;;;7.40;99.90;;;;;;6300126;22;20015;-83
2023/12/09 03:28:42;;;;;;;807.25;740.03;;;7.40;99.90;;;;;;6299364;22;20031;-82
2023/12/09 03:31:13;;;;;;;845.03;773.67;;;7.40;99.90;;;;;;6276290;22;20012;-83
2023/12/09 03:33:38;;;;;;;812.38;744.92;;;7.50;99.90;;;;;;6300678;22;20020;-83
2023/12/09 03:36:05;;;;;;;836.95;767.35;;;7.40;99.90;;;;;;6300267;22;20108;-83
2023/12/09 03:38:31;;;;;;;773.10;711.53;;;7.50;99.90;;;;;;6274687;22;20439;-82
2023/12/09 03:40:57;;;;;;;828.42;759.67;;;7.30;99.90;;;;;;6301350;22;20092;-83
2023/12/09 03:43:22;;;;;;;847.65;776.00;;;7.30;99.90;;;;;;6298618;22;20023;-83
2023/12/09 03:45:48;;;;;;;802.72;737.13;;;7.30;99.90;;;;;;6274816;22;20487;-82
2023/12/09 03:48:14;;;;;;;758.28;696.83;;;7.30;99.90;;;;;;6300912;22;20023;-83
2023/12/09 03:50:39;;;;;;;810.17;743.65;;;7.30;99.90;;;;;;6273910;22;20058;-83
2023/12/09 03:53:05;;;;;;;828.95;759.22;;;7.30;99.90;;;;;;6300923;22;20103;-82
2023/12/09 03:55:31;;;;;;;780.90;718.45;;;7.20;99.90;;;;;;6299576;22;20027;-83
2023/12/09 03:57:56;;;;;;;896.13;817.22;;;7.30;99.90;;;;;;6300313;22;20018;-83
2023/12/09 04:00:22;;;;;;;839.63;769.00;;;7.20;99.90;;;;;;6300452;22;20443;-82
2023/12/09 04:02:48;;;;;;;779.55;715.60;;;7.20;99.90;;;;;;6299491;22;20023;-83
2023/12/09 04:05:14;;;;;;;821.10;752.05;;;7.20;99.90;;;;;;6301089;22;20029;-82
2023/12/09 04:07:40;;;;;;;845.33;773.78;;;7.20;99.90;;;;;;6299814;22;20090;-83
2023/12/09 04:10:09;;;;;;;794.60;730.60;;;7.30;99.90;;;;;;6300248;22;20397;-84
2023/12/09 04:12:35;;;;;;;812.67;745.33;;;7.30;99.90;;;;;;6273697;22;20428;-82
2023/12/09 04:15:01;;;;;;;858.88;785.03;;;7.20;99.90;;;;;;6274495;22;20019;-82
2023/12/09 04:17:27;;;;;;;800.67;735.80;;;7.30;99.90;;;;;;6299521;22;20012;-82
2023/12/09 04:19:52;;;;;;;837.42;768.80;;;7.30;99.90;;;;;;6300782;22;20022;-83
2023/12/09 04:22:19;;;;;;;828.65;760.47;;;7.30;99.90;;;;;;6300560;22;20339;-83
2023/12/09 04:24:45;;;;;;;779.10;716.97;;;7.30;99.90;;;;;;6298923;22;20007;-82
2023/12/09 04:27:12;;;;;;;788.30;725.95;;;7.30;99.90;;;;;;6301048;22;20464;-83
2023/12/09 04:29:38;;;;;;;811.78;746.00;;;7.30;99.90;;;;;;6274016;22;20324;-83
2023/12/09 04:32:04;;;;;;;832.53;764.40;;;7.20;99.90;;;;;;6274056;22;20015;-82
2023/12/09 04:34:29;;;;;;;779.50;715.85;;;7.30;99.90;;;;;;6274378;22;20027;-82
2023/12/09 04:36:56;;;;;;;802.05;736.28;;;7.30;99.90;;;;;;6273889;22;20023;-83
2023/12/09 04:39:22;;;;;;;783.38;720.92;;;7.30;99.90;;;;;;6299531;22;20470;-83
2023/12/09 04:41:48;;;;;;;810.28;744.70;;;7.20;99.90;;;;;;6300231;22;20027;-83
2023/12/09 04:44:13;;;;;;;760.63;700.03;;;7.30;99.90;;;;;;6299018;22;20011;-82
2023/12/09 04:46:39;;;;;;;777.15;714.42;;;7.20;99.90;;;;;;6299401;22;20019;-83
2023/12/09 04:49:05;;;;;;;826.10;758.35;;;7.30;99.90;;;;;;6274647;22;20015;-84
2023/12/09 04:51:31;;;;;;;800.10;736.40;;;7.30;99.90;;;;;;6274278;22;20023;-83
2023/12/09 04:53:56;;;;;;;802.17;737.20;;;7.30;99.90;;;;;;6299498;22;20201;-83
2023/12/09 04:56:22;;;;;;;829.78;759.72;;;7.30;99.90;;;;;;6278531;22;20011;-83
2023/12/09 04:58:48;;;;;;;835.17;766.88;;;7.30;99.90;;;;;;6303297;22;20037;-83
2023/12/09 05:01:14;;;;;;;810.20;745.70;;;7.20;99.90;;;;;;6305038;22;20019;-83
2023/12/09 05:03:40;;;;;;;884.90;809.50;;;7.20;99.90;;;;;;6305216;22;20703;-82
2023/12/09 05:06:08;;;;;;;771.63;708.75;;;7.30;99.90;;;;;;6278749;22;20041;-82
2023/12/09 05:08:33;;;;;;;755.25;694.08;;;7.20;99.90;;;;;;6304631;22;20042;-83
2023/12/09 05:10:59;;;;;;;751.55;692.95;;;7.20;99.90;;;;;;6305870;22;20494;-83
2023/12/09 05:13:25;;;;;;;811.30;744.40;;;7.20;99.90;;;;;;6303216;22;20057;-83
2023/12/09 05:15:51;;;;;;;787.20;723.53;;;7.20;99.90;;;;;;6305830;22;20325;-83
2023/12/09 05:18:17;;;;;;;784.20;721.97;;;7.20;99.90;;;;;;6305290;22;20042;-83
2023/12/09 05:20:44;;;;;;;797.65;734.33;;;7.30;99.90;;;;;;6303663;22;20046;-83
2023/12/09 05:23:09;;;;;;;837.55;766.22;;;7.30;99.90;;;;;;6279393;22;20522;-82
2023/12/09 05:25:35;;;;;;;733.05;676.08;;;7.10;99.90;;;;;;6304633;22;20026;-83
2023/12/09 05:28:01;;;;;;;761.03;700.40;;;7.30;99.90;;;;;;6303994;22;20114;-83
2023/12/09 05:30:27;;;;;;;778.63;716.95;;;7.20;99.90;;;;;;6304860;22;20524;-83
2023/12/09 05:32:53;;;;;;;778.47;715.33;;;7.30;99.90;;;;;;6305070;22;20026;-83
2023/12/09 05:35:19;;;;;;;787.05;724.33;;;7.20;99.90;;;;;;6278973;22;20422;-83
2023/12/09 05:37:44;;;;;;;765.78;703.85;;;7.30;99.90;;;;;;6304342;22;20015;-83
2023/12/09 05:40:11;;;;;;;805.78;740.53;;;7.30;99.90;;;;;;6305300;22;20018;-83
2023/12/09 05:42:37;;;;;;;810.03;744.05;;;7.30;99.90;;;;;;6276881;22;20489;-83
2023/12/09 05:45:03;;;;;;;739.85;681.60;;;7.30;99.90;;;;;;6304583;22;20018;-82
2023/12/09 05:47:29;;;;;;;794.38;730.15;;;7.30;99.90;;;;;;6304607;22;20076;-83
2023/12/09 05:49:54;;;;;;;757.33;696.55;;;7.20;99.90;;;;;;6303579;22;20057;-83
2023/12/09 05:52:20;;;;;;;788.38;725.97;;;7.30;99.90;;;;;;6305403;22;20075;-83
2023/12/09 05:54:46;;;;;;;755.53;695.70;;;7.30;99.90;;;;;;6304079;22;20060;-83
2023/12/09 05:57:12;;;;;;;746.70;688.20;;;7.30;99.90;;;;;;6304034;22;20019;-83
2023/12/09 05:59:37;;;;;;;800.97;736.33;;;7.20;99.90;;;;;;6303425;22;20034;-83
2023/12/09 06:02:04;;;;;;;766.65;705.45;;;7.30;99.90;;;;;;6303824;22;20015;-83
2023/12/09 06:04:30;;;;;;;794.20;728.58;;;7.70;99.90;;;;;;6278858;22;20014;-83
2023/12/09 06:06:56;;;;;;;769.08;709.15;;;7.20;99.90;;;;;;6279205;22;20018;-83
2023/12/09 06:09:21;;;;;;;791.08;728.40;;;7.30;99.90;;;;;;6303797;22;20133;-83
2023/12/09 06:11:49;;;;;;;783.38;720.90;;;7.30;99.90;;;;;;6304460;22;20018;-83
2023/12/09 06:14:15;;;;;;;738.38;680.70;;;7.20;99.90;;;;;;6302985;22;20019;-83
2023/12/09 06:16:41;;;;;;;753.55;692.40;;;7.40;99.90;;;;;;6303877;22;20022;-83
2023/12/09 06:19:06;;;;;;;743.28;684.65;;;7.20;99.90;;;;;;6303050;22;20347;-83
2023/12/09 06:21:32;;;;;;;785.40;722.80;;;7.20;99.90;;;;;;6304131;22;20022;-83
2023/12/09 06:23:58;;;;;;;806.22;739.65;;;7.30;99.90;;;;;;6277482;22;20018;-83
2023/12/09 06:26:24;;;;;;;803.42;739.05;;;7.30;99.90;;;;;;6303599;22;20387;-83
2023/12/09 06:28:50;;;;;;;816.20;749.30;;;7.30;99.90;;;;;;6302835;22;20053;-83
2023/12/09 06:31:15;;;;;;;760.97;699.95;;;7.20;99.90;;;;;;6302769;22;20058;-83
2023/12/09 06:33:41;;;;;;;799.67;734.90;;;7.20;99.90;;;;;;6303317;22;20591;-83
2023/12/09 06:36:07;;;;;;;754.58;693.42;;;7.20;99.90;;;;;;6304207;22;20487;-83
2023/12/09 06:38:34;;;;;;;805.15;740.78;;;7.30;99.90;;;;;;6302452;22;20067;-83
2023/12/09 06:41:00;;;;;;;789.92;726.28;;;7.30;99.90;;;;;;6304397;22;20026;-83
2023/12/09 06:43:26;;;;;;;736.60;678.72;;;7.30;99.90;;;;;;6275979;22;20018;-83
2023/12/09 06:45:51;;;;;;;777.15;715.30;;;7.30;99.90;;;;;;6302993;22;20332;-83
2023/12/09 06:48:17;;;;;;;784.35;720.83;;;7.20;99.90;;;;;;6303655;22;20054;-83
2023/12/09 06:50:43;;;;;;;764.38;704.50;;;7.20;99.90;;;;;;6277450;22;20342;-83
2023/12/09 06:53:13;;;;;;;805.85;741.40;;;7.20;99.90;;;;;;6302763;22;20041;-83
2023/12/09 06:55:39;;;;;;;745.05;687.85;;;7.20;99.90;;;;;;6301879;22;20050;-82
2023/12/09 06:58:05;;;;;;;814.75;749.30;;;7.20;99.90;;;;;;6302564;22;20011;-83
2023/12/09 07:00:31;;;;;;;761.20;700.53;;;7.20;99.90;;;;;;6301950;22;20327;-83
2023/12/09 07:02:56;;;;;;;756.92;697.45;;;7.20;99.90;;;;;;6305288;22;20118;-83
2023/12/09 07:05:23;;;;;;;650.60;601.28;;;7.20;99.90;;;;;;6279214;22;20029;-82
2023/12/09 07:07:49;;;;;;;698.60;644.83;;;7.10;99.90;;;;;;6305254;22;20439;-82
2023/12/09 07:10:16;;;;;;;665.28;614.08;;;7.10;99.90;;;;;;6305783;22;20018;-83
2023/12/09 07:12:43;;;;;;;720.03;665.13;;;7.20;99.90;;;;;;6303485;22;20057;-83
2023/12/09 07:15:11;;;;;;;700.90;646.47;;;7.10;99.90;;;;;;6300079;22;20023;-82
2023/12/09 07:17:37;;;;;;;732.92;676.08;;;7.10;99.90;;;;;;6277358;22;20019;-82
2023/12/09 07:20:05;;;;;;;688.15;635.45;;;7.10;99.90;;;;;;6303419;22;20084;-84
2023/12/09 07:22:31;;;;;;;686.35;633.47;;;7.10;99.90;;;;;;6278357;22;20021;-82
2023/12/09 07:24:57;;;;;;;699.63;646.03;;;7.00;99.90;;;;;;6305105;22;20355;-82
2023/12/09 07:27:23;;;;;;;674.35;623.03;;;7.10;99.90;;;;;;6304902;22;20019;-82
2023/12/09 07:29:49;;;;;;;681.20;630.00;;;7.00;99.90;;;;;;6303909;22;20384;-82
2023/12/09 07:32:17;;;;;;;703.92;649.55;;;7.00;99.90;;;;;;6277428;22;20377;-83
2023/12/09 07:34:43;;;;;;;692.30;638.90;;;7.00;99.90;;;;;;6303931;22;20087;-83
2023/12/09 07:37:11;;;;;;;662.08;611.58;;;6.90;99.90;;;;;;6305801;22;20447;-81
2023/12/09 07:39:37;;;;;;;668.28;617.67;;;7.00;99.90;;;;;;6304781;22;20433;-81
2023/12/09 07:42:03;;;;;;;710.92;656.03;;;6.90;99.90;;;;;;6304013;22;20015;-82
2023/12/09 07:44:29;;;;;;;696.95;643.53;;;6.90;99.90;;;;;;6304040;22;20733;-82
2023/12/09 07:46:55;;;;;;;690.17;636.67;;;6.90;99.90;;;;;;6279536;22;20458;-81
2023/12/09 07:49:21;;;;;;;696.72;643.63;;;6.90;99.90;;;;;;6279094;22;20056;-82
2023/12/09 07:51:47;;;;;;;720.40;664.50;;;6.80;99.90;;;;;;6305332;22;20021;-82
2023/12/09 07:54:12;;;;;;;710.67;656.17;;;6.90;99.90;;;;;;6305416;22;20011;-83
2023/12/09 07:56:38;;;;;;;735.22;678.83;;;6.90;99.90;;;;;;6304730;22;20037;-83
2023/12/09 07:59:04;;;;;;;686.47;634.17;;;6.90;99.90;;;;;;6304314;22;20098;-82
2023/12/09 08:01:30;;;;;;;681.55;629.63;;;6.50;99.90;;;;;;6333467;22;20098;-82
2023/12/09 08:03:58;;;;;;;684.67;632.88;;;6.80;99.90;;;;;;6278727;22;20113;-82
2023/12/09 08:06:24;;;;;;;704.85;650.90;;;6.90;99.90;;;;;;6305382;22;20054;-81
2023/12/09 08:08:50;;;;;;;715.47;660.33;;;6.90;99.90;;;;;;6304576;22;20129;-81
2023/12/09 08:11:18;;;;;;;669.58;618.33;;;6.90;99.90;;;;;;6279727;22;20023;-82
2023/12/09 08:13:44;;;;;;;676.00;624.47;;;6.90;99.90;;;;;;6304006;22;20451;-81
2023/12/09 08:16:10;;;;;;;684.75;632.85;;;6.80;99.90;;;;;;6278659;22;20023;-81
2023/12/09 08:18:36;;;;;;;692.40;639.50;;;6.80;99.90;;;;;;6305266;22;20034;-81
2023/12/09 08:21:03;;;;;;;719.17;664.38;;;6.90;99.90;;;;;;6306211;22;20029;-81
2023/12/09 08:23:29;;;;;;;671.72;620.50;;;6.80;99.90;;;;;;6303901;22;20018;-80
2023/12/09 08:25:55;;;;;;;683.17;631.47;;;6.80;99.90;;;;;;6306201;22;20402;-81
2023/12/09 08:28:21;;;;;;;669.92;619.17;;;6.90;99.90;;;;;;6303912;22;20050;-82
2023/12/09 08:30:46;;;;;;;731.38;674.92;;;6.90;99.90;;;;;;6332635;22;20089;-81
2023/12/09 08:33:13;;;;;;;710.83;656.22;;;6.90;99.90;;;;;;6305296;22;20093;-81
2023/12/09 08:35:39;;;;;;;711.42;656.60;;;7.00;99.90;;;;;;6279121;22;20022;-80
2023/12/09 08:38:05;;;;;;;708.55;655.22;;;6.90;99.90;;;;;;6304366;22;20025;-81
2023/12/09 08:40:30;;;;;;;716.28;661.13;;;6.90;99.90;;;;;;6304052;22;20034;-81
2023/12/09 08:42:56;;;;;;;674.70;623.17;;;6.90;99.90;;;;;;6304907;22;20019;-81
2023/12/09 08:45:22;;;;;;;706.75;652.45;;;6.90;99.90;;;;;;6278378;22;20014;-81
2023/12/09 08:47:47;;;;;;;667.78;616.60;;;6.90;99.90;;;;;;6304960;22;20015;-81
2023/12/09 08:50:13;;;;;;;697.60;644.70;;;6.90;99.90;;;;;;6305280;22;20415;-81
2023/12/09 08:52:39;;;;;;;715.47;660.92;;;6.90;99.90;;;;;;6303455;22;20451;-81
2023/12/09 08:55:05;;;;;;;717.22;662.60;;;6.90;99.90;;;;;;6305645;22;20110;-81
2023/12/09 08:57:31;;;;;;;707.45;653.70;;;6.90;99.90;;;;;;6332518;22;20037;-81
2023/12/09 08:59:57;;;;;;;672.10;620.97;;;6.90;99.90;;;;;;6331422;22;20292;-81
2023/12/09 09:02:24;;;;;;;670.83;619.72;;;7.00;99.90;;;;;;6305047;22;20134;-81
2023/12/09 09:04:52;;;;;;;663.08;612.85;;;6.90;99.90;;;;;;6304069;22;20474;-86
2023/12/09 09:07:18;;;;;;;688.80;636.50;;;6.90;99.90;;;;;;6278615;22;20015;-81
2023/12/09 09:09:44;;;;;;;701.97;648.67;;;6.90;99.90;;;;;;6304684;22;20353;-83
2023/12/09 09:12:10;;;;;;;698.08;644.28;;;6.90;99.90;;;;;;6278370;22;20463;-82
2023/12/09 09:14:36;;;;;;;701.97;648.63;;;6.90;99.90;;;;;;6277757;22;20102;-82
2023/12/09 09:17:03;;;;;;;677.95;626.55;;;7.00;99.90;;;;;;6279597;22;20098;-82
2023/12/09 09:19:29;;;;;;;695.65;643.08;;;6.90;99.90;;;;;;6278090;22;20509;-82
2023/12/09 09:21:55;;;;;;;693.38;640.70;;;6.90;99.90;;;;;;6304668;22;20045;-82
2023/12/09 09:24:20;;;;;;;709.75;655.72;;;7.00;99.90;;;;;;6304529;22;20439;-84
2023/12/09 09:26:47;;;;;;;669.00;618.53;;;6.90;99.90;;;;;;6303284;22;20434;-82
2023/12/09 09:29:13;;;;;;;696.58;643.67;;;7.00;99.90;;;;;;6299161;22;20010;-81
2023/12/09 09:31:38;;;;;;;677.15;626.40;;;7.00;99.90;;;;;;6303815;22;20015;-81
2023/12/09 09:34:04;;;;;;;704.47;651.17;;;7.00;99.90;;;;;;6331602;22;20011;-81
2023/12/09 09:36:30;;;;;;;679.70;629.45;;;7.00;99.90;;;;;;6304866;22;20311;-80
2023/12/09 09:38:56;;;;;;;659.35;610.38;;;7.00;99.90;;;;;;6304574;22;20076;-84
2023/12/09 09:41:31;;;;;;;691.08;638.47;;;7.00;99.90;;;;;;6303940;22;20022;-84
2023/12/09 09:44:06;;;;;;;656.42;607.47;;;7.00;99.90;;;;;;6303388;22;20342;-81
2023/12/09 09:46:34;;;;;;;680.90;629.60;;;7.00;99.90;;;;;;6332353;22;20027;-81
2023/12/09 09:49:03;;;;;;;703.25;649.90;;;7.10;99.90;;;;;;6303486;22;20389;-81
2023/12/09 09:51:30;;;;;;;667.78;618.45;;;7.20;99.90;;;;;;6332283;22;20029;-81
2023/12/09 09:54:12;;;;;;;673.00;622.40;;;7.20;99.90;;;;;;6304168;22;20401;-81
2023/12/09 09:56:39;;;;;;;694.85;642.67;;;7.20;99.90;;;;;;6303689;22;20011;-81
2023/12/09 09:59:06;;;;;;;707.38;652.88;;;7.20;99.90;;;;;;6277893;22;20023;-82
2023/12/09 10:01:33;;;;;;;674.22;623.05;;;7.30;99.90;;;;;;6302926;22;20021;-81
2023/12/09 10:03:58;;;;;;;771.38;708.70;;;7.30;99.90;;;;;;6304832;22;20432;-82
2023/12/09 10:06:24;;;;;;;725.50;670.90;;;7.30;99.90;;;;;;6279340;22;20025;-81
2023/12/09 10:08:51;;;;;;;714.38;659.72;;;7.20;99.90;;;;;;6330934;22;20013;-81
2023/12/09 10:11:16;;;;;;;738.30;682.38;;;7.20;99.90;;;;;;6304250;22;20045;-81
2023/12/09 10:13:44;;;;;;;743.17;686.53;;;7.20;99.90;;;;;;6330517;22;20488;-81
2023/12/09 10:16:10;;;;;;;718.20;664.08;;;7.20;99.90;;;;;;6277978;22;20022;-81
2023/12/09 10:18:36;;;;;;;722.50;667.80;;;7.20;99.90;;;;;;6332130;22;20017;-81
2023/12/09 10:21:04;;;;;;;686.10;634.65;;;7.20;99.90;;;;;;6304464;22;20087;-81
2023/12/09 10:23:30;;;;;;;713.40;658.65;;;7.30;99.90;;;;;;6277915;22;20068;-81
2023/12/09 10:25:58;;;;;;;701.80;649.10;;;7.30;99.90;;;;;;6332668;22;20042;-81
2023/12/09 10:28:24;;;;;;;727.33;672.15;;;7.30;99.90;;;;;;6331360;22;20426;-82
2023/12/09 10:30:50;;;;;;;782.20;721.08;;;7.30;99.90;;;;;;6303349;22;20068;-81
2023/12/09 10:33:17;;;;;;;718.25;664.03;;;7.30;99.90;;;;;;6304251;22;20045;-81
2023/12/09 10:35:42;;;;;;;708.72;655.50;;;7.30;99.90;;;;;;6303386;22;20025;-81
2023/12/09 10:38:09;;;;;;;702.92;650.55;;;7.30;99.90;;;;;;6303561;22;20093;-81
2023/12/09 10:40:35;;;;;;;735.72;679.17;;;7.40;99.90;;;;;;6332499;22;20054;-81
2023/12/09 10:43:02;;;;;;;722.78;668.20;;;7.40;99.90;;;;;;6303446;22;20089;-81
2023/12/09 10:45:29;;;;;;;724.35;668.35;;;7.40;99.90;;;;;;6277190;22;20030;-81
2023/12/09 10:47:54;;;;;;;718.70;664.42;;;7.40;99.90;;;;;;6304050;22;20019;-83
2023/12/09 10:50:20;;;;;;;742.83;686.47;;;7.50;99.90;;;;;;6304329;22;20044;-82
2023/12/09 10:52:46;;;;;;;720.53;666.00;;;7.50;99.90;;;;;;6331570;22;20069;-81
2023/12/09 10:55:12;;;;;;;725.00;669.55;;;7.50;99.90;;;;;;6332124;22;20438;-81
2023/12/09 10:57:39;;;;;;;716.80;662.80;;;7.60;99.90;;;;;;6302486;22;20046;-81
2023/12/09 11:00:10;;;;;;;715.25;661.25;;;7.70;99.90;;;;;;6331223;22;20515;-82
2023/12/09 11:02:39;;;;;;;679.38;628.58;;;7.70;99.90;;;;;;6304015;22;20761;-80
2023/12/09 11:05:09;;;;;;;680.45;629.75;;;7.70;99.90;;;;;;6302818;22;20026;-80
2023/12/09 11:07:36;;;;;;;705.50;652.15;;;7.80;99.90;;;;;;6303949;22;20034;-81
2023/12/09 11:10:03;;;;;;;685.38;634.10;;;7.70;99.90;;;;;;6303645;22;20014;-79
2023/12/09 11:12:32;;;;;;;669.38;619.47;;;7.80;99.90;;;;;;6277464;22;20019;-81
2023/12/09 11:15:16;;;;;;;697.10;645.13;;;7.70;99.90;;;;;;6303046;22;20030;-81
2023/12/09 11:17:47;;;;;;;677.65;627.15;;;7.70;99.90;;;;;;6303491;22;20017;-85
2023/12/09 11:20:18;;;;;;;651.70;603.53;;;7.80;99.90;;;;;;6302869;22;20435;-81
2023/12/09 11:22:46;;;;;;;698.50;646.38;;;7.80;99.90;;;;;;6303814;22;20043;-80
2023/12/09 11:25:21;;;;;;;707.92;653.83;;;7.80;99.90;;;;;;6332584;22;20369;-81
2023/12/09 11:27:51;;;;;;;639.30;591.70;;;7.80;99.90;;;;;;6302652;22;20097;-80
2023/12/09 11:30:31;;;;;;;650.58;602.45;;;7.80;99.90;;;;;;6303406;22;20052;-81
2023/12/09 11:32:57;;;;;;;644.20;596.10;;;7.80;99.90;;;;;;6330609;22;20021;-81
2023/12/09 11:35:25;;;;;;;659.00;609.83;;;7.80;99.90;;;;;;6304093;22;20454;-81
2023/12/09 11:37:52;;;;;;;615.38;569.85;;;7.80;99.90;;;;;;6303647;22;20025;-82
2023/12/09 11:40:18;;;;;;;635.00;588.17;;;7.80;99.90;;;;;;6303478;22;20031;-81
2023/12/09 11:42:45;;;;;;;644.30;596.25;;;7.80;99.90;;;;;;6303205;22;20007;-81
2023/12/09 11:45:11;;;;;;;625.72;578.97;;;7.70;99.90;;;;;;6331280;22;20038;-81
2023/12/09 11:47:39;;;;;;;612.78;567.95;;;7.70;99.90;;;;;;6304103;22;20034;-81
2023/12/09 11:50:07;;;;;;;659.50;610.63;;;7.70;99.90;;;;;;6305577;22;20132;-80
2023/12/09 11:52:33;;;;;;;651.90;603.72;;;7.70;99.90;;;;;;6305444;22;20196;-79
2023/12/09 11:55:00;;;;;;;675.33;625.75;;;7.70;99.90;;;;;;6304741;22;20018;-80
2023/12/09 11:57:31;;;;;;;669.38;618.45;;;7.70;99.90;;;;;;6305545;22;20554;-81
2023/12/09 11:59:57;;;;;;;659.08;610.45;;;7.70;99.90;;;;;;6304994;22;20126;-80
2023/12/09 12:02:23;;;;;;;652.85;604.80;;;7.80;99.90;;;;;;6304701;22;20044;-81
2023/12/09 12:04:49;;;;;;;640.20;593.47;;;7.80;99.90;;;;;;6305414;22;20327;-80
2023/12/09 12:07:15;;;;;;;600.85;557.03;;;7.80;99.90;;;;;;6305264;22;20090;-80
2023/12/09 12:09:40;;;;;;;618.47;573.35;;;7.80;99.90;;;;;;6332147;22;20647;-80
2023/12/09 12:12:07;;;;;;;655.58;606.03;;;7.80;99.90;;;;;;6305522;22;20119;-80
2023/12/09 12:14:32;;;;;;;624.08;578.15;;;7.80;99.90;;;;;;6332281;22;20094;-79